sensor_id;sensor_type;location;lat;lon;timestamp;temperature;humidity
24049;DHT22;12250;50.956;4.746;2023-07-30T00:01:57;14.60;99.90
24049;DHT22;12250;50.956;4.746;2023-07-30T00:04:22;14.60;99.90
24049;DHT22;12250;50.956;4.746;2023-07-30T00:06:48;14.50;99.90
24049;DHT22;12250;50.956;4.746;2023-07-30T00:09:14;14.50;99.90
24049;DHT22;12250;50.956;4.746;2023-07-30T00:11:40;14.40;99.90
24049;DHT22;12250;50.956;4.746;2023-07-30T00:14:05;14.40;99.90
24049;DHT22;12250;50.956;4.746;2023-07-30T00:16:31;14.40;99.90
24049;DHT22;12250;50.956;4.746;2023-07-30T00:18:57;14.30;99.90
24049;DHT22;12250;50.956;4.746;2023-07-30T00:21:23;14.30;99.90
24049;DHT22;12250;50.956;4.746;2023-07-30T00:23:49;14.30;99.90
24049;DHT22;12250;50.956;4.746;2023-07-30T00:26:14;14.20;99.90
24049;DHT22;12250;50.956;4.746;2023-07-30T00:28:40;14.20;99.90
24049;DHT22;12250;50.956;4.746;2023-07-30T00:31:06;14.30;99.90
24049;DHT22;12250;50.956;4.746;2023-07-30T00:33:31;14.30;99.90
24049;DHT22;12250;50.956;4.746;2023-07-30T00:35:57;14.40;99.90
24049;DHT22;12250;50.956;4.746;2023-07-30T00:38:23;14.40;99.90
24049;DHT22;12250;50.956;4.746;2023-07-30T00:40:49;14.40;99.90
24049;DHT22;12250;50.956;4.746;2023-07-30T00:43:14;14.50;99.90
24049;DHT22;12250;50.956;4.746;2023-07-30T00:45:42;14.50;99.90
24049;DHT22;12250;50.956;4.746;2023-07-30T00:48:09;14.50;99.90
24049;DHT22;12250;50.956;4.746;2023-07-30T00:50:35;14.50;99.90
24049;DHT22;12250;50.956;4.746;2023-07-30T00:53:01;14.50;99.90
24049;DHT22;12250;50.956;4.746;2023-07-30T00:55:26;14.40;99.90
24049;DHT22;12250;50.956;4.746;2023-07-30T00:57:52;14.50;99.90
24049;DHT22;12250;50.956;4.746;2023-07-30T01:00:18;14.50;99.90
24049;DHT22;12250;50.956;4.746;2023-07-30T01:02:44;14.60;99.90
24049;DHT22;12250;50.956;4.746;2023-07-30T01:05:10;14.60;99.90
24049;DHT22;12250;50.956;4.746;2023-07-30T01:07:36;14.60;99.90
24049;DHT22;12250;50.956;4.746;2023-07-30T01:10:02;14.50;99.90
24049;DHT22;12250;50.956;4.746;2023-07-30T01:12:30;14.60;99.90
24049;DHT22;12250;50.956;4.746;2023-07-30T01:14:57;14.60;99.90
24049;DHT22;12250;50.956;4.746;2023-07-30T01:17:24;14.60;99.90
24049;DHT22;12250;50.956;4.746;2023-07-30T01:19:53;14.60;99.90
24049;DHT22;12250;50.956;4.746;2023-07-30T01:22:20;14.70;99.90
24049;DHT22;12250;50.956;4.746;2023-07-30T01:24:47;14.80;99.90
24049;DHT22;12250;50.956;4.746;2023-07-30T01:27:18;14.80;99.90
24049;DHT22;12250;50.956;4.746;2023-07-30T01:32:28;15.20;99.90
24049;DHT22;12250;50.956;4.746;2023-07-30T01:34:57;15.30;99.90
24049;DHT22;12250;50.956;4.746;2023-07-30T01:37:23;15.40;99.90
24049;DHT22;12250;50.956;4.746;2023-07-30T01:39:50;15.50;99.90
24049;DHT22;12250;50.956;4.746;2023-07-30T01:42:16;15.60;99.90
24049;DHT22;12250;50.956;4.746;2023-07-30T01:44:42;15.70;99.90
24049;DHT22;12250;50.956;4.746;2023-07-30T01:47:08;15.70;99.90
24049;DHT22;12250;50.956;4.746;2023-07-30T01:49:33;15.80;99.90
24049;DHT22;12250;50.956;4.746;2023-07-30T01:51:59;15.90;99.90
24049;DHT22;12250;50.956;4.746;2023-07-30T01:54:25;15.90;99.90
24049;DHT22;12250;50.956;4.746;2023-07-30T01:56:52;15.90;99.90
24049;DHT22;12250;50.956;4.746;2023-07-30T01:59:18;15.90;99.90
24049;DHT22;12250;50.956;4.746;2023-07-30T02:01:44;16.10;99.90
24049;DHT22;12250;50.956;4.746;2023-07-30T02:04:09;16.10;99.90
24049;DHT22;12250;50.956;4.746;2023-07-30T02:06:35;16.20;99.90
24049;DHT22;12250;50.956;4.746;2023-07-30T02:09:01;16.30;99.90
24049;DHT22;12250;50.956;4.746;2023-07-30T02:11:27;16.30;99.90
24049;DHT22;12250;50.956;4.746;2023-07-30T02:13:53;16.40;99.90
24049;DHT22;12250;50.956;4.746;2023-07-30T02:16:19;16.50;99.90
24049;DHT22;12250;50.956;4.746;2023-07-30T02:18:45;16.50;99.90
24049;DHT22;12250;50.956;4.746;2023-07-30T02:21:11;16.60;99.90
24049;DHT22;12250;50.956;4.746;2023-07-30T02:23:36;16.60;99.90
24049;DHT22;12250;50.956;4.746;2023-07-30T02:26:02;16.60;99.90
24049;DHT22;12250;50.956;4.746;2023-07-30T02:28:27;16.60;99.90
24049;DHT22;12250;50.956;4.746;2023-07-30T02:30:53;16.60;99.90
24049;DHT22;12250;50.956;4.746;2023-07-30T02:33:19;16.60;99.90
24049;DHT22;12250;50.956;4.746;2023-07-30T02:35:44;16.60;99.90
24049;DHT22;12250;50.956;4.746;2023-07-30T02:38:10;16.50;99.90
24049;DHT22;12250;50.956;4.746;2023-07-30T02:40:35;16.40;99.90
24049;DHT22;12250;50.956;4.746;2023-07-30T02:43:01;16.30;99.90
24049;DHT22;12250;50.956;4.746;2023-07-30T02:45:27;16.30;99.90
24049;DHT22;12250;50.956;4.746;2023-07-30T02:47:53;16.30;99.90
24049;DHT22;12250;50.956;4.746;2023-07-30T02:50:18;16.30;99.90
24049;DHT22;12250;50.956;4.746;2023-07-30T02:52:44;16.30;99.90
24049;DHT22;12250;50.956;4.746;2023-07-30T02:55:10;16.40;99.90
24049;DHT22;12250;50.956;4.746;2023-07-30T02:57:35;16.30;99.90
24049;DHT22;12250;50.956;4.746;2023-07-30T03:00:02;16.20;99.90
24049;DHT22;12250;50.956;4.746;2023-07-30T03:02:29;16.20;99.90
24049;DHT22;12250;50.956;4.746;2023-07-30T03:04:55;16.10;99.90
24049;DHT22;12250;50.956;4.746;2023-07-30T03:07:20;16.10;99.90
24049;DHT22;12250;50.956;4.746;2023-07-30T03:09:46;16.00;99.90
24049;DHT22;12250;50.956;4.746;2023-07-30T03:12:12;16.00;99.90
24049;DHT22;12250;50.956;4.746;2023-07-30T03:14:38;16.00;99.90
24049;DHT22;12250;50.956;4.746;2023-07-30T03:17:04;15.90;99.90
24049;DHT22;12250;50.956;4.746;2023-07-30T03:19:30;15.90;99.90
24049;DHT22;12250;50.956;4.746;2023-07-30T03:21:56;16.00;99.90
24049;DHT22;12250;50.956;4.746;2023-07-30T03:24:22;16.00;99.90
24049;DHT22;12250;50.956;4.746;2023-07-30T03:26:48;16.10;99.90
24049;DHT22;12250;50.956;4.746;2023-07-30T03:29:14;16.10;99.90
24049;DHT22;12250;50.956;4.746;2023-07-30T03:31:40;16.10;99.90
24049;DHT22;12250;50.956;4.746;2023-07-30T03:34:05;16.20;99.90
24049;DHT22;12250;50.956;4.746;2023-07-30T03:36:31;16.30;99.90
24049;DHT22;12250;50.956;4.746;2023-07-30T03:38:57;16.40;99.90
24049;DHT22;12250;50.956;4.746;2023-07-30T03:41:23;16.50;99.90
24049;DHT22;12250;50.956;4.746;2023-07-30T03:43:48;16.60;99.90
24049;DHT22;12250;50.956;4.746;2023-07-30T03:46:14;16.70;99.90
24049;DHT22;12250;50.956;4.746;2023-07-30T03:48:40;16.70;99.90
24049;DHT22;12250;50.956;4.746;2023-07-30T03:51:05;16.70;99.90
24049;DHT22;12250;50.956;4.746;2023-07-30T03:53:32;16.80;99.90
24049;DHT22;12250;50.956;4.746;2023-07-30T03:55:58;16.80;99.90
24049;DHT22;12250;50.956;4.746;2023-07-30T03:58:24;16.80;99.90
24049;DHT22;12250;50.956;4.746;2023-07-30T04:00:49;16.90;99.90
24049;DHT22;12250;50.956;4.746;2023-07-30T04:03:15;16.90;99.90
24049;DHT22;12250;50.956;4.746;2023-07-30T04:05:40;16.90;99.90
24049;DHT22;12250;50.956;4.746;2023-07-30T04:08:06;16.90;99.90
24049;DHT22;12250;50.956;4.746;2023-07-30T04:10:32;17.00;99.90
24049;DHT22;12250;50.956;4.746;2023-07-30T04:12:57;17.10;99.90
24049;DHT22;12250;50.956;4.746;2023-07-30T04:15:23;17.10;99.90
24049;DHT22;12250;50.956;4.746;2023-07-30T04:17:49;17.10;99.90
24049;DHT22;12250;50.956;4.746;2023-07-30T04:20:14;17.10;99.90
24049;DHT22;12250;50.956;4.746;2023-07-30T04:22:40;17.10;99.90
24049;DHT22;12250;50.956;4.746;2023-07-30T04:25:07;17.20;99.90
24049;DHT22;12250;50.956;4.746;2023-07-30T04:27:33;17.20;99.90
24049;DHT22;12250;50.956;4.746;2023-07-30T04:29:59;17.20;99.90
24049;DHT22;12250;50.956;4.746;2023-07-30T04:32:25;17.20;99.90
24049;DHT22;12250;50.956;4.746;2023-07-30T04:34:51;17.20;99.90
24049;DHT22;12250;50.956;4.746;2023-07-30T04:37:16;17.40;99.90
24049;DHT22;12250;50.956;4.746;2023-07-30T04:39:42;17.30;99.90
24049;DHT22;12250;50.956;4.746;2023-07-30T04:42:08;17.40;99.90
24049;DHT22;12250;50.956;4.746;2023-07-30T04:44:33;17.40;99.90
24049;DHT22;12250;50.956;4.746;2023-07-30T04:46:59;17.40;99.90
24049;DHT22;12250;50.956;4.746;2023-07-30T04:49:24;17.40;99.90
24049;DHT22;12250;50.956;4.746;2023-07-30T04:51:50;17.40;99.90
24049;DHT22;12250;50.956;4.746;2023-07-30T04:54:16;17.50;99.90
24049;DHT22;12250;50.956;4.746;2023-07-30T04:56:41;17.50;99.90
24049;DHT22;12250;50.956;4.746;2023-07-30T04:59:07;17.50;99.90
24049;DHT22;12250;50.956;4.746;2023-07-30T05:01:33;17.50;99.90
24049;DHT22;12250;50.956;4.746;2023-07-30T05:03:58;17.60;99.90
24049;DHT22;12250;50.956;4.746;2023-07-30T05:06:24;17.60;99.90
24049;DHT22;12250;50.956;4.746;2023-07-30T05:08:49;17.60;99.90
24049;DHT22;12250;50.956;4.746;2023-07-30T05:11:15;17.50;99.90
24049;DHT22;12250;50.956;4.746;2023-07-30T05:13:41;17.60;99.90
24049;DHT22;12250;50.956;4.746;2023-07-30T05:16:06;17.60;99.90
24049;DHT22;12250;50.956;4.746;2023-07-30T05:18:32;17.70;99.90
24049;DHT22;12250;50.956;4.746;2023-07-30T05:20:58;17.70;99.90
24049;DHT22;12250;50.956;4.746;2023-07-30T05:23:23;17.70;99.90
24049;DHT22;12250;50.956;4.746;2023-07-30T05:25:49;17.70;99.90
24049;DHT22;12250;50.956;4.746;2023-07-30T05:28:15;17.70;99.90
24049;DHT22;12250;50.956;4.746;2023-07-30T05:30:41;17.70;99.90
24049;DHT22;12250;50.956;4.746;2023-07-30T05:33:06;17.80;99.90
24049;DHT22;12250;50.956;4.746;2023-07-30T05:35:32;17.70;99.90
24049;DHT22;12250;50.956;4.746;2023-07-30T05:37:58;17.80;99.90
24049;DHT22;12250;50.956;4.746;2023-07-30T05:40:23;17.80;99.90
24049;DHT22;12250;50.956;4.746;2023-07-30T05:42:49;17.90;99.90
24049;DHT22;12250;50.956;4.746;2023-07-30T05:45:15;17.90;99.90
24049;DHT22;12250;50.956;4.746;2023-07-30T05:47:40;18.00;99.90
24049;DHT22;12250;50.956;4.746;2023-07-30T05:50:07;18.00;99.90
24049;DHT22;12250;50.956;4.746;2023-07-30T05:52:33;18.10;99.90
24049;DHT22;12250;50.956;4.746;2023-07-30T05:54:58;18.10;99.90
24049;DHT22;12250;50.956;4.746;2023-07-30T05:57:24;18.20;99.90
24049;DHT22;12250;50.956;4.746;2023-07-30T05:59:50;18.20;99.90
24049;DHT22;12250;50.956;4.746;2023-07-30T06:02:16;18.30;99.90
24049;DHT22;12250;50.956;4.746;2023-07-30T06:04:42;18.30;99.90
24049;DHT22;12250;50.956;4.746;2023-07-30T06:07:08;18.50;99.90
24049;DHT22;12250;50.956;4.746;2023-07-30T06:09:34;18.70;99.90
24049;DHT22;12250;50.956;4.746;2023-07-30T06:11:59;18.80;99.90
24049;DHT22;12250;50.956;4.746;2023-07-30T06:14:26;18.90;99.90
24049;DHT22;12250;50.956;4.746;2023-07-30T06:16:54;18.90;99.90
24049;DHT22;12250;50.956;4.746;2023-07-30T06:19:20;18.90;99.90
24049;DHT22;12250;50.956;4.746;2023-07-30T06:21:46;18.90;99.90
24049;DHT22;12250;50.956;4.746;2023-07-30T06:24:12;19.00;99.90
24049;DHT22;12250;50.956;4.746;2023-07-30T06:26:37;19.00;99.90
24049;DHT22;12250;50.956;4.746;2023-07-30T06:29:03;19.00;99.90
24049;DHT22;12250;50.956;4.746;2023-07-30T06:31:29;18.90;99.90
24049;DHT22;12250;50.956;4.746;2023-07-30T06:33:55;19.00;99.90
24049;DHT22;12250;50.956;4.746;2023-07-30T06:36:21;19.00;99.90
24049;DHT22;12250;50.956;4.746;2023-07-30T06:38:46;19.00;99.90
24049;DHT22;12250;50.956;4.746;2023-07-30T06:41:14;19.00;99.90
24049;DHT22;12250;50.956;4.746;2023-07-30T06:43:39;19.10;99.90
24049;DHT22;12250;50.956;4.746;2023-07-30T06:46:05;19.10;99.90
24049;DHT22;12250;50.956;4.746;2023-07-30T06:48:31;19.30;99.90
24049;DHT22;12250;50.956;4.746;2023-07-30T06:50:57;19.40;99.90
24049;DHT22;12250;50.956;4.746;2023-07-30T06:53:22;19.50;99.90
24049;DHT22;12250;50.956;4.746;2023-07-30T06:55:48;19.40;99.90
24049;DHT22;12250;50.956;4.746;2023-07-30T06:58:14;19.50;99.90
24049;DHT22;12250;50.956;4.746;2023-07-30T07:00:39;19.50;99.90
24049;DHT22;12250;50.956;4.746;2023-07-30T07:03:05;19.50;99.90
24049;DHT22;12250;50.956;4.746;2023-07-30T07:05:31;19.40;99.90
24049;DHT22;12250;50.956;4.746;2023-07-30T07:07:56;19.20;99.90
24049;DHT22;12250;50.956;4.746;2023-07-30T07:10:22;19.00;99.90
24049;DHT22;12250;50.956;4.746;2023-07-30T07:12:48;19.00;99.90
24049;DHT22;12250;50.956;4.746;2023-07-30T07:15:13;19.00;99.90
24049;DHT22;12250;50.956;4.746;2023-07-30T07:17:39;18.90;99.90
24049;DHT22;12250;50.956;4.746;2023-07-30T07:20:06;19.00;99.90
24049;DHT22;12250;50.956;4.746;2023-07-30T07:22:33;19.20;99.90
24049;DHT22;12250;50.956;4.746;2023-07-30T07:24:59;19.50;99.90
24049;DHT22;12250;50.956;4.746;2023-07-30T07:27:24;19.90;99.90
24049;DHT22;12250;50.956;4.746;2023-07-30T07:29:51;20.40;99.90
24049;DHT22;12250;50.956;4.746;2023-07-30T07:32:17;20.90;99.90
24049;DHT22;12250;50.956;4.746;2023-07-30T07:34:49;21.40;99.90
24049;DHT22;12250;50.956;4.746;2023-07-30T07:37:15;21.90;99.90
24049;DHT22;12250;50.956;4.746;2023-07-30T07:39:44;22.20;99.90
24049;DHT22;12250;50.956;4.746;2023-07-30T07:42:10;22.60;99.90
24049;DHT22;12250;50.956;4.746;2023-07-30T07:44:36;22.80;99.90
24049;DHT22;12250;50.956;4.746;2023-07-30T07:47:02;22.70;99.90
24049;DHT22;12250;50.956;4.746;2023-07-30T07:49:27;22.60;99.90
24049;DHT22;12250;50.956;4.746;2023-07-30T07:51:53;22.50;99.90
24049;DHT22;12250;50.956;4.746;2023-07-30T07:54:19;22.20;99.90
24049;DHT22;12250;50.956;4.746;2023-07-30T07:56:44;22.10;99.90
24049;DHT22;12250;50.956;4.746;2023-07-30T07:59:10;21.70;99.90
24049;DHT22;12250;50.956;4.746;2023-07-30T08:01:35;21.60;99.90
24049;DHT22;12250;50.956;4.746;2023-07-30T08:04:01;21.80;99.90
24049;DHT22;12250;50.956;4.746;2023-07-30T08:06:27;22.00;99.90
24049;DHT22;12250;50.956;4.746;2023-07-30T08:08:53;22.10;99.90
24049;DHT22;12250;50.956;4.746;2023-07-30T08:11:19;22.10;99.90
24049;DHT22;12250;50.956;4.746;2023-07-30T08:13:45;22.40;99.90
24049;DHT22;12250;50.956;4.746;2023-07-30T08:16:13;22.70;99.90
24049;DHT22;12250;50.956;4.746;2023-07-30T08:18:39;22.90;99.90
24049;DHT22;12250;50.956;4.746;2023-07-30T08:21:05;23.80;99.90
24049;DHT22;12250;50.956;4.746;2023-07-30T08:23:30;24.40;99.90
24049;DHT22;12250;50.956;4.746;2023-07-30T08:25:56;24.50;98.90
24049;DHT22;12250;50.956;4.746;2023-07-30T08:28:22;24.40;99.20
24049;DHT22;12250;50.956;4.746;2023-07-30T08:30:48;24.10;99.70
24049;DHT22;12250;50.956;4.746;2023-07-30T08:33:14;23.60;99.20
24049;DHT22;12250;50.956;4.746;2023-07-30T08:35:40;23.20;99.90
24049;DHT22;12250;50.956;4.746;2023-07-30T08:38:05;22.80;99.90
24049;DHT22;12250;50.956;4.746;2023-07-30T08:40:31;23.20;99.90
24049;DHT22;12250;50.956;4.746;2023-07-30T08:42:57;23.40;99.60
24049;DHT22;12250;50.956;4.746;2023-07-30T08:45:23;23.80;99.80
24049;DHT22;12250;50.956;4.746;2023-07-30T08:47:49;24.40;98.70
24049;DHT22;12250;50.956;4.746;2023-07-30T08:50:15;24.50;97.40
24049;DHT22;12250;50.956;4.746;2023-07-30T08:52:42;24.20;97.20
24049;DHT22;12250;50.956;4.746;2023-07-30T08:55:08;24.00;96.80
24049;DHT22;12250;50.956;4.746;2023-07-30T08:57:35;23.80;98.20
24049;DHT22;12250;50.956;4.746;2023-07-30T09:00:11;23.70;97.40
24049;DHT22;12250;50.956;4.746;2023-07-30T09:02:48;23.80;97.30
24049;DHT22;12250;50.956;4.746;2023-07-30T09:05:14;24.30;96.20
24049;DHT22;12250;50.956;4.746;2023-07-30T09:07:40;25.60;95.90
24049;DHT22;12250;50.956;4.746;2023-07-30T09:10:06;26.40;93.10
24049;DHT22;12250;50.956;4.746;2023-07-30T09:12:33;26.00;92.80
24049;DHT22;12250;50.956;4.746;2023-07-30T09:14:59;25.30;93.50
24049;DHT22;12250;50.956;4.746;2023-07-30T09:17:25;24.50;94.60
24049;DHT22;12250;50.956;4.746;2023-07-30T09:19:52;23.90;95.30
24049;DHT22;12250;50.956;4.746;2023-07-30T09:22:32;23.80;95.40
24049;DHT22;12250;50.956;4.746;2023-07-30T09:25:07;23.40;96.70
24049;DHT22;12250;50.956;4.746;2023-07-30T09:27:33;22.50;96.90
24049;DHT22;12250;50.956;4.746;2023-07-30T09:30:00;21.90;97.40
24049;DHT22;12250;50.956;4.746;2023-07-30T09:32:34;21.30;98.50
24049;DHT22;12250;50.956;4.746;2023-07-30T09:35:10;20.80;99.50
24049;DHT22;12250;50.956;4.746;2023-07-30T09:37:38;20.70;99.90
24049;DHT22;12250;50.956;4.746;2023-07-30T09:40:06;20.70;99.90
24049;DHT22;12250;50.956;4.746;2023-07-30T09:42:32;20.70;99.90
24049;DHT22;12250;50.956;4.746;2023-07-30T09:45:08;21.00;99.90
24049;DHT22;12250;50.956;4.746;2023-07-30T09:47:46;21.20;99.90
24049;DHT22;12250;50.956;4.746;2023-07-30T09:50:13;21.60;99.90
24049;DHT22;12250;50.956;4.746;2023-07-30T09:52:39;22.00;99.90
24049;DHT22;12250;50.956;4.746;2023-07-30T09:55:07;21.90;99.40
24049;DHT22;12250;50.956;4.746;2023-07-30T09:57:33;21.10;99.90
24049;DHT22;12250;50.956;4.746;2023-07-30T09:59:59;20.40;99.90
24049;DHT22;12250;50.956;4.746;2023-07-30T10:02:25;19.90;99.90
24049;DHT22;12250;50.956;4.746;2023-07-30T10:04:53;19.60;99.90
24049;DHT22;12250;50.956;4.746;2023-07-30T10:07:23;19.30;99.90
24049;DHT22;12250;50.956;4.746;2023-07-30T10:09:52;19.60;99.90
24049;DHT22;12250;50.956;4.746;2023-07-30T10:12:33;20.20;99.90
24049;DHT22;12250;50.956;4.746;2023-07-30T10:15:01;20.50;99.90
24049;DHT22;12250;50.956;4.746;2023-07-30T10:17:26;20.50;99.90
24049;DHT22;12250;50.956;4.746;2023-07-30T10:19:54;20.10;99.90
24049;DHT22;12250;50.956;4.746;2023-07-30T10:22:24;19.60;99.90
24049;DHT22;12250;50.956;4.746;2023-07-30T10:25:02;19.10;99.90
24049;DHT22;12250;50.956;4.746;2023-07-30T10:27:36;18.70;99.90
24049;DHT22;12250;50.956;4.746;2023-07-30T10:30:15;18.50;99.90
24049;DHT22;12250;50.956;4.746;2023-07-30T10:35:46;19.00;99.90
24049;DHT22;12250;50.956;4.746;2023-07-30T10:38:22;19.40;99.90
24049;DHT22;12250;50.956;4.746;2023-07-30T10:41:04;20.20;99.90
24049;DHT22;12250;50.956;4.746;2023-07-30T10:43:40;22.00;99.90
24049;DHT22;12250;50.956;4.746;2023-07-30T10:46:06;23.00;99.90
24049;DHT22;12250;50.956;4.746;2023-07-30T10:50:59;25.40;99.90
24049;DHT22;12250;50.956;4.746;2023-07-30T10:53:24;28.20;99.00
24049;DHT22;12250;50.956;4.746;2023-07-30T10:55:50;29.10;96.30
24049;DHT22;12250;50.956;4.746;2023-07-30T10:58:18;30.90;91.70
24049;DHT22;12250;50.956;4.746;2023-07-30T11:00:43;33.20;85.80
24049;DHT22;12250;50.956;4.746;2023-07-30T11:03:09;34.50;72.50
24049;DHT22;12250;50.956;4.746;2023-07-30T11:05:38;34.80;68.00
24049;DHT22;12250;50.956;4.746;2023-07-30T11:08:04;35.00;65.60
24049;DHT22;12250;50.956;4.746;2023-07-30T11:10:29;35.30;65.00
24049;DHT22;12250;50.956;4.746;2023-07-30T11:12:57;32.20;66.00
24049;DHT22;12250;50.956;4.746;2023-07-30T11:15:24;30.40;73.10
24049;DHT22;12250;50.956;4.746;2023-07-30T11:17:52;30.10;73.10
24049;DHT22;12250;50.956;4.746;2023-07-30T11:20:24;29.70;73.60
24049;DHT22;12250;50.956;4.746;2023-07-30T11:22:54;29.00;76.10
24049;DHT22;12250;50.956;4.746;2023-07-30T11:25:19;30.10;70.00
24049;DHT22;12250;50.956;4.746;2023-07-30T11:27:49;31.00;72.20
24049;DHT22;12250;50.956;4.746;2023-07-30T11:30:15;30.90;72.40
24049;DHT22;12250;50.956;4.746;2023-07-30T11:32:44;30.40;74.70
24049;DHT22;12250;50.956;4.746;2023-07-30T11:35:13;29.60;74.60
24049;DHT22;12250;50.956;4.746;2023-07-30T11:37:40;29.00;74.10
24049;DHT22;12250;50.956;4.746;2023-07-30T11:40:09;28.80;75.10
24049;DHT22;12250;50.956;4.746;2023-07-30T11:42:39;28.60;77.70
24049;DHT22;12250;50.956;4.746;2023-07-30T11:45:21;28.30;79.30
24049;DHT22;12250;50.956;4.746;2023-07-30T11:47:48;28.00;79.10
24049;DHT22;12250;50.956;4.746;2023-07-30T11:50:14;27.80;79.70
24049;DHT22;12250;50.956;4.746;2023-07-30T11:52:53;27.40;77.80
24049;DHT22;12250;50.956;4.746;2023-07-30T11:55:19;26.30;80.30
24049;DHT22;12250;50.956;4.746;2023-07-30T11:57:45;25.60;82.40
24049;DHT22;12250;50.956;4.746;2023-07-30T12:00:11;25.30;87.20
24049;DHT22;12250;50.956;4.746;2023-07-30T12:02:38;25.70;86.70
24049;DHT22;12250;50.956;4.746;2023-07-30T12:05:04;26.70;87.20
24049;DHT22;12250;50.956;4.746;2023-07-30T12:07:32;27.40;82.50
24049;DHT22;12250;50.956;4.746;2023-07-30T12:10:11;27.50;83.10
24049;DHT22;12250;50.956;4.746;2023-07-30T12:12:44;27.40;81.20
24049;DHT22;12250;50.956;4.746;2023-07-30T12:15:11;27.30;81.50
24049;DHT22;12250;50.956;4.746;2023-07-30T12:17:38;27.00;78.60
24049;DHT22;12250;50.956;4.746;2023-07-30T12:20:05;26.50;80.20
24049;DHT22;12250;50.956;4.746;2023-07-30T12:22:33;26.10;78.60
24049;DHT22;12250;50.956;4.746;2023-07-30T12:25:04;25.60;78.20
24049;DHT22;12250;50.956;4.746;2023-07-30T12:27:30;25.50;79.70
24049;DHT22;12250;50.956;4.746;2023-07-30T12:29:56;25.40;82.40
24049;DHT22;12250;50.956;4.746;2023-07-30T12:32:21;25.40;79.00
24049;DHT22;12250;50.956;4.746;2023-07-30T12:34:47;25.20;79.00
24049;DHT22;12250;50.956;4.746;2023-07-30T12:37:13;25.20;76.70
24049;DHT22;12250;50.956;4.746;2023-07-30T12:39:38;25.10;79.90
24049;DHT22;12250;50.956;4.746;2023-07-30T12:42:04;25.30;78.40
24049;DHT22;12250;50.956;4.746;2023-07-30T12:44:30;25.40;83.00
24049;DHT22;12250;50.956;4.746;2023-07-30T12:46:55;25.60;80.40
24049;DHT22;12250;50.956;4.746;2023-07-30T12:49:21;25.70;80.50
24049;DHT22;12250;50.956;4.746;2023-07-30T12:51:47;25.90;78.10
24049;DHT22;12250;50.956;4.746;2023-07-30T12:54:13;26.00;76.90
24049;DHT22;12250;50.956;4.746;2023-07-30T12:56:39;25.80;74.10
24049;DHT22;12250;50.956;4.746;2023-07-30T12:59:04;25.50;74.70
24049;DHT22;12250;50.956;4.746;2023-07-30T13:01:30;25.20;77.40
24049;DHT22;12250;50.956;4.746;2023-07-30T13:03:55;25.40;74.80
24049;DHT22;12250;50.956;4.746;2023-07-30T13:06:21;25.40;76.20
24049;DHT22;12250;50.956;4.746;2023-07-30T13:08:47;25.50;79.40
24049;DHT22;12250;50.956;4.746;2023-07-30T13:11:12;25.60;80.00
24049;DHT22;12250;50.956;4.746;2023-07-30T13:13:38;25.60;79.50
24049;DHT22;12250;50.956;4.746;2023-07-30T13:16:04;25.70;76.70
24049;DHT22;12250;50.956;4.746;2023-07-30T13:18:29;25.30;77.20
24049;DHT22;12250;50.956;4.746;2023-07-30T13:20:55;25.40;79.30
24049;DHT22;12250;50.956;4.746;2023-07-30T13:23:20;25.60;76.00
24049;DHT22;12250;50.956;4.746;2023-07-30T13:25:46;25.60;76.20
24049;DHT22;12250;50.956;4.746;2023-07-30T13:28:12;25.40;75.50
24049;DHT22;12250;50.956;4.746;2023-07-30T13:30:37;25.30;79.50
24049;DHT22;12250;50.956;4.746;2023-07-30T13:33:03;25.30;80.20
24049;DHT22;12250;50.956;4.746;2023-07-30T13:35:29;25.30;79.20
24049;DHT22;12250;50.956;4.746;2023-07-30T13:37:54;25.50;76.20
24049;DHT22;12250;50.956;4.746;2023-07-30T13:40:20;25.80;76.00
24049;DHT22;12250;50.956;4.746;2023-07-30T13:42:45;26.20;76.20
24049;DHT22;12250;50.956;4.746;2023-07-30T13:45:11;26.30;74.40
24049;DHT22;12250;50.956;4.746;2023-07-30T13:47:37;26.40;75.30
24049;DHT22;12250;50.956;4.746;2023-07-30T13:50:02;26.50;76.40
24049;DHT22;12250;50.956;4.746;2023-07-30T13:52:28;26.60;71.10
24049;DHT22;12250;50.956;4.746;2023-07-30T13:54:54;26.50;73.40
24049;DHT22;12250;50.956;4.746;2023-07-30T13:57:23;26.30;71.40
24049;DHT22;12250;50.956;4.746;2023-07-30T13:59:52;26.00;71.40
24049;DHT22;12250;50.956;4.746;2023-07-30T14:02:18;26.10;74.00
24049;DHT22;12250;50.956;4.746;2023-07-30T14:04:44;26.30;76.90
24049;DHT22;12250;50.956;4.746;2023-07-30T14:07:09;26.30;74.80
24049;DHT22;12250;50.956;4.746;2023-07-30T14:09:35;26.30;71.90
24049;DHT22;12250;50.956;4.746;2023-07-30T14:12:05;26.30;74.40
24049;DHT22;12250;50.956;4.746;2023-07-30T14:14:31;26.20;71.00
24049;DHT22;12250;50.956;4.746;2023-07-30T14:16:56;25.90;71.90
24049;DHT22;12250;50.956;4.746;2023-07-30T14:19:22;25.60;74.10
24049;DHT22;12250;50.956;4.746;2023-07-30T14:21:48;25.50;73.20
24049;DHT22;12250;50.956;4.746;2023-07-30T14:24:13;25.50;70.60
24049;DHT22;12250;50.956;4.746;2023-07-30T14:26:39;25.40;70.20
24049;DHT22;12250;50.956;4.746;2023-07-30T14:29:05;25.40;70.90
24049;DHT22;12250;50.956;4.746;2023-07-30T14:31:31;25.30;69.40
24049;DHT22;12250;50.956;4.746;2023-07-30T14:33:56;25.40;71.10
24049;DHT22;12250;50.956;4.746;2023-07-30T14:36:23;25.50;70.30
24049;DHT22;12250;50.956;4.746;2023-07-30T14:38:48;25.60;70.60
24049;DHT22;12250;50.956;4.746;2023-07-30T14:41:14;25.60;70.60
24049;DHT22;12250;50.956;4.746;2023-07-30T14:43:39;25.40;71.70
24049;DHT22;12250;50.956;4.746;2023-07-30T14:46:05;25.30;72.60
24049;DHT22;12250;50.956;4.746;2023-07-30T14:48:32;25.20;74.60
24049;DHT22;12250;50.956;4.746;2023-07-30T14:50:57;25.00;74.00
24049;DHT22;12250;50.956;4.746;2023-07-30T14:53:24;24.70;76.90
24049;DHT22;12250;50.956;4.746;2023-07-30T14:55:49;24.70;78.90
24049;DHT22;12250;50.956;4.746;2023-07-30T14:58:15;24.90;78.10
24049;DHT22;12250;50.956;4.746;2023-07-30T15:00:41;25.10;77.70
24049;DHT22;12250;50.956;4.746;2023-07-30T15:03:06;25.20;77.30
24049;DHT22;12250;50.956;4.746;2023-07-30T15:05:32;25.40;78.10
24049;DHT22;12250;50.956;4.746;2023-07-30T15:08:00;25.50;79.30
24049;DHT22;12250;50.956;4.746;2023-07-30T15:10:26;25.60;76.80
24049;DHT22;12250;50.956;4.746;2023-07-30T15:12:52;25.50;77.20
24049;DHT22;12250;50.956;4.746;2023-07-30T15:15:17;25.10;77.70
24049;DHT22;12250;50.956;4.746;2023-07-30T15:17:43;24.70;78.50
24049;DHT22;12250;50.956;4.746;2023-07-30T15:20:09;24.40;79.80
24049;DHT22;12250;50.956;4.746;2023-07-30T15:22:35;24.10;80.70
24049;DHT22;12250;50.956;4.746;2023-07-30T15:25:01;24.00;83.10
24049;DHT22;12250;50.956;4.746;2023-07-30T15:27:27;24.00;84.30
24049;DHT22;12250;50.956;4.746;2023-07-30T15:29:52;24.10;83.40
24049;DHT22;12250;50.956;4.746;2023-07-30T15:32:18;23.90;84.50
24049;DHT22;12250;50.956;4.746;2023-07-30T15:34:43;23.70;85.50